avis per tempestes more information blitzortung!


avis per Pluja more information rain snow radar


Visita la nostra xarxa de llocs de meteo:

Template documentation
and downloads

And another site



Thunderstorms From: 20-07-2018 17:00 Until: 21-07-2018 01:59 warning for: Thunderstorms Level: Yellow info button
Rain From: 20-07-2018 17:00 Until: 21-07-2018 01:59 warning for: Rain Level: Yellow info button

Pagina Historial Weather Underground text

Diari Resum Desembre 6, 2017 Unitats:  Mètric    Imperial   Tant
« Previous Dia
SegĂźent Dia »
Diari Setmana Mensual Anual Personalitzada
  Maxima: Minima: Media:
Temperatura: -17.8 °C -18 °C -14.1 °C
Punt de rosada: -17.8 °C -21 °C -17.8 °C
Humitat: Humidity % 52 % 63 %
Wind Speed: 0 km/h 0 km/h 4.3 km/h
RĂ fegues de vent: 0 km/h - -
Vent:- - South
Pression baro: 0 hPa 34875.8 hPa -
Precipitacions: 0 mm    
Historical Graphs
 
 
Dades de taula per Desembre 6, 2017
Temps Temperatura Punt de rosada Pression baro Vent Wind Speed RĂ fegues de vent Humitat Rainfall Rate (Hourly)
-17.8 °C -17.8 °C 0 hPa Calm     Humidity % 0 mm
00:01 -16.3 °C -20.4 °C 35038.3 hPa Calm     58 % 0 mm
00:05 -17.7 °C -20.8 °C 35001.1 hPa Calm   5.1 km/h 66 % 0 mm
00:06 -16.3 °C -20.3 °C 35038.3 hPa Calm     59 % 0 mm
00:11 -16.3 °C -20.3 °C 35038.3 hPa Calm     59 % 0 mm
00:15 -17.8 °C -21 °C 35001.1 hPa WSW 2.6 km/h 5.1 km/h 65 % 0 mm
00:25 -17.8 °C -20.9 °C 35001.1 hPa WSW 2.6 km/h 5.1 km/h 66 % 0 mm
00:35 -17.8 °C -20.9 °C 35001.1 hPa WSW 2.6 km/h 5.1 km/h 66 % 0 mm
00:45 -17.8 °C -20.9 °C 35001.1 hPa WSW 2.6 km/h 5.1 km/h 66 % 0 mm
00:55 -17.8 °C -20.8 °C 35038.3 hPa Calm   2.6 km/h 67 % 0 mm
01:05 -17.8 °C -20.8 °C 35038.3 hPa Calm   2.6 km/h 67 % 0 mm
01:15 -17.8 °C -20.8 °C 35038.3 hPa Calm     67 % 0 mm
01:25 -17.8 °C -20.8 °C 35038.3 hPa Calm     67 % 0 mm
01:35 -17.8 °C -20.7 °C 35038.3 hPa Calm     68 % 0 mm
01:45 -17.9 °C -20.9 °C 35038.3 hPa SW 2.6 km/h 5.1 km/h 67 % 0 mm
01:55 -18 °C -21 °C 35038.3 hPa Calm   5.1 km/h 67 % 0 mm
02:05 -17.9 °C -20.8 °C 35038.3 hPa Calm     68 % 0 mm
02:15 -18 °C -20.9 °C 35038.3 hPa Calm   2.6 km/h 68 % 0 mm
02:25 -17.9 °C -20.8 °C 35038.3 hPa Calm     68 % 0 mm
02:35 -17.8 °C -20.8 °C 35038.3 hPa West 2.6 km/h 5.1 km/h 67 % 0 mm
02:45 -17.7 °C -20.6 °C 35038.3 hPa WSW 2.6 km/h 5.1 km/h 68 % 0 mm
02:55 -17.6 °C -20.6 °C 35038.3 hPa WSW 2.6 km/h 5.1 km/h 67 % 0 mm
03:05 -17.3 °C -20.3 °C 35038.3 hPa SW 2.6 km/h 5.1 km/h 67 % 0 mm
03:15 -16.8 °C -19.7 °C 35038.3 hPa Calm     68 % 0 mm
03:25 -16.4 °C -19.4 °C 35038.3 hPa Calm   2.6 km/h 67 % 0 mm
03:35 -16.1 °C -19.3 °C 35038.3 hPa Calm     66 % 0 mm
03:55 -15.7 °C -19.1 °C 35038.3 hPa Calm   5.1 km/h 64 % 0 mm
04:05 -15.8 °C -19.4 °C 35038.3 hPa ESE 2.6 km/h 5.1 km/h 63 % 0 mm
04:15 -15.5 °C -19.1 °C 35038.3 hPa East 2.6 km/h 5.1 km/h 63 % 0 mm
04:35 -15.2 °C -18.8 °C 35038.3 hPa SSE 2.6 km/h 5.1 km/h 62 % 0 mm
04:45 -15.1 °C -18.9 °C 35038.3 hPa ESE 5.1 km/h 5.1 km/h 61 % 0 mm
04:55 -14.9 °C -19.1 °C 35038.3 hPa ENE 5.1 km/h 7.7 km/h 59 % 0 mm
05:05 -14.7 °C -18.9 °C 35038.3 hPa ENE 2.6 km/h 5.1 km/h 58 % 0 mm
11:08 -14.6 °C -18.8 °C 35038.3 hPa NNW 5.1 km/h 5.1 km/h 58 % 0 mm
11:13 -14.4 °C -18.7 °C 35038.3 hPa NE 6 km/h 6 km/h 58 % 0 mm
11:18 -14.4 °C -18.8 °C 35038.3 hPa NE 11.9 km/h 11.9 km/h 57 % 0 mm
11:19 -14.4 °C -18.8 °C 35038.3 hPa NE 9 km/h 9 km/h 57 % 0 mm
11:24 -14.3 °C -18.7 °C 35038.3 hPa ENE 6.8 km/h 6.8 km/h 57 % 0 mm
11:29 -14.2 °C -18.8 °C 35038.3 hPa NE 6.8 km/h 6.8 km/h 56 % 0 mm
11:34 -14.1 °C -18.7 °C 35038.3 hPa ENE 6 km/h 6 km/h 56 % 0 mm
11:39 -13.9 °C -18.5 °C 35038.3 hPa ENE 6.8 km/h 6.8 km/h 56 % 0 mm
11:44 -13.8 °C -18.3 °C 35001.1 hPa East 6 km/h 6 km/h 56 % 0 mm
11:49 -13.7 °C -18.3 °C 35001.1 hPa NNE 6 km/h 6 km/h 56 % 0 mm
11:59 -13.5 °C -18.2 °C 35001.1 hPa East 6 km/h 6 km/h 55 % 0 mm
12:04 -13.3 °C -18 °C 35001.1 hPa ENE 4.2 km/h 4.2 km/h 55 % 0 mm
12:09 -13.2 °C -17.9 °C 35001.1 hPa ENE 6 km/h 6 km/h 55 % 0 mm
12:14 -13.2 °C -18.1 °C 35001.1 hPa East 6 km/h 6 km/h 54 % 0 mm
12:19 -13.1 °C -17.9 °C 35001.1 hPa ENE 6 km/h 6 km/h 54 % 0 mm
12:24 -12.9 °C -17.8 °C 35001.1 hPa NNW 3.1 km/h 3.1 km/h 54 % 0 mm
12:29 -12.9 °C -17.9 °C 35001.1 hPa NE 9 km/h 9 km/h 53 % 0 mm
12:34 -12.9 °C -17.9 °C 35001.1 hPa NE 6 km/h 6 km/h 53 % 0 mm
12:39 -12.7 °C -17.7 °C 35001.1 hPa NNW 6 km/h 6 km/h 53 % 0 mm
12:44 -12.6 °C -17.7 °C 35001.1 hPa NNE 6.3 km/h 6.3 km/h 53 % 0 mm
12:49 -12.5 °C -17.6 °C 35001.1 hPa ENE 6 km/h 6 km/h 53 % 0 mm
12:54 -12.4 °C -17.5 °C 35001.1 hPa NE 4.2 km/h 4.2 km/h 53 % 0 mm
12:59 -12.3 °C -17.4 °C 34967.2 hPa ENE 6 km/h 6 km/h 53 % 0 mm
13:04 -12.2 °C -17.3 °C 34967.2 hPa NE 11.9 km/h 11.9 km/h 53 % 0 mm
13:09 -12.1 °C -17.2 °C 34967.2 hPa NNE 9 km/h 9 km/h 53 % 0 mm
13:14 -12 °C -17.1 °C 34967.2 hPa ENE 6 km/h 6 km/h 53 % 0 mm
13:19 -11.8 °C -17.1 °C 34967.2 hPa ENE 6 km/h 6 km/h 52 % 0 mm
13:24 -11.8 °C -17.1 °C 34967.2 hPa ENE 8 km/h 8 km/h 52 % 0 mm
13:29 -11.8 °C -17.1 °C 34946.9 hPa SE 6 km/h 6 km/h 52 % 0 mm
13:34 -11.7 °C -16.8 °C 34946.9 hPa NNW 6 km/h 6 km/h 53 % 0 mm
13:44 -11.6 °C -16.7 °C 34946.9 hPa North 6.3 km/h 6.3 km/h 53 % 0 mm
13:49 -11.6 °C -16.8 °C 34946.9 hPa NNE 6 km/h 6 km/h 52 % 0 mm
13:54 -11.4 °C -16.7 °C 34946.9 hPa NNE 6 km/h 6 km/h 52 % 0 mm
13:59 -11.4 °C -16.7 °C 34946.9 hPa NNW 3.1 km/h   52 % 0 mm
14:04 -11.3 °C -16.5 °C 34946.9 hPa ESE 6 km/h 6 km/h 53 % 0 mm
14:09 -11.2 °C -16.2 °C 34946.9 hPa SW 8.5 km/h   54 % 0 mm
14:14 -11.1 °C -16.2 °C 34946.9 hPa WSW 11.9 km/h 11.9 km/h 54 % 0 mm
14:19 -11 °C -16 °C 34946.9 hPa SSW 9 km/h 9 km/h 54 % 0 mm
14:24 -10.9 °C -16 °C 34946.9 hPa WSW 6 km/h 6 km/h 54 % 0 mm
14:29 -10.8 °C -15.9 °C 34946.9 hPa NW 11.9 km/h 11.9 km/h 54 % 0 mm
14:34 -10.8 °C -15.8 °C 34946.9 hPa WSW 11.9 km/h 11.9 km/h 54 % 0 mm
14:39 -10.7 °C -15.7 °C 34946.9 hPa NW 9 km/h 9 km/h 54 % 0 mm
14:44 -10.7 °C -15.7 °C 34946.9 hPa SSE 6 km/h 7.6 km/h 54 % 0 mm
14:49 -10.6 °C -15.7 °C 34946.9 hPa SSW 14.5 km/h 14.5 km/h 54 % 0 mm
14:54 -10.7 °C -15.9 °C 34946.9 hPa SW 6 km/h 6 km/h 53 % 0 mm
14:59 -10.7 °C -15.9 °C 34946.9 hPa ENE 6 km/h 7.6 km/h 53 % 0 mm
15:04 -10.6 °C -15.8 °C 34946.9 hPa ESE 9.3 km/h 9.3 km/h 53 % 0 mm
15:09 -10.7 °C -15.9 °C 34946.9 hPa NE 6 km/h 6 km/h 53 % 0 mm
15:14 -10.4 °C -15.6 °C 34946.9 hPa WNW 9 km/h 9 km/h 53 % 0 mm
15:19 -10.2 °C -15.4 °C 34946.9 hPa West 15 km/h 15 km/h 53 % 0 mm
15:24 -10.1 °C -15.3 °C 34946.9 hPa SSW 15 km/h 15 km/h 53 % 0 mm
15:29 -10 °C -15.2 °C 34946.9 hPa SSW 11.9 km/h 11.9 km/h 53 % 0 mm
15:34 -10 °C -15.2 °C 34946.9 hPa South 11.9 km/h 11.9 km/h 53 % 0 mm
15:39 -10 °C -15.2 °C 34946.9 hPa SSW 9.3 km/h 9.3 km/h 53 % 0 mm
15:44 -10.1 °C -15.3 °C 34899.5 hPa SSW 17.9 km/h 17.9 km/h 53 % 0 mm
15:49 -10.2 °C -15.4 °C 34899.5 hPa SW 15 km/h 15 km/h 53 % 0 mm
15:54 -10.1 °C -15.2 °C 34899.5 hPa SSW 11.9 km/h 11.9 km/h 54 % 0 mm
15:59 -10.1 °C -15.2 °C 34899.5 hPa SSW 6 km/h 6 km/h 54 % 0 mm
16:04 -10.1 °C -15.2 °C 34899.5 hPa WSW 11.9 km/h 11.9 km/h 54 % 0 mm
16:09 -10.2 °C -15.2 °C 34899.5 hPa SW 12.2 km/h 12.2 km/h 54 % 0 mm
16:14 -10.2 °C -15.3 °C 34899.5 hPa SW 11.9 km/h 11.9 km/h 54 % 0 mm
16:19 -10.3 °C -15.5 °C 34899.5 hPa South 15 km/h 15 km/h 53 % 0 mm
16:24 -10.4 °C -15.6 °C 34899.5 hPa WSW 15 km/h 15 km/h 53 % 0 mm
16:29 -10.4 °C -15.6 °C 34899.5 hPa SW 9 km/h 9 km/h 53 % 0 mm
16:34 -10.4 °C -15.5 °C 34899.5 hPa SW 9 km/h 9 km/h 54 % 0 mm
16:39 -10.5 °C -15.6 °C 34899.5 hPa SSW 15 km/h 15 km/h 54 % 0 mm
16:44 -10.6 °C -15.6 °C 34899.5 hPa SW 9 km/h 9 km/h 54 % 0 mm
16:49 -10.6 °C -15.7 °C 34899.5 hPa SSW 9 km/h 9 km/h 54 % 0 mm
16:54 -10.7 °C -15.8 °C 34899.5 hPa WSW 9 km/h 9 km/h 54 % 0 mm
16:59 -10.8 °C -15.8 °C 34899.5 hPa SW 15 km/h 15 km/h 54 % 0 mm
17:04 -10.9 °C -16 °C 34899.5 hPa SSW 11.1 km/h 11.1 km/h 54 % 0 mm
17:09 -11.1 °C -16.1 °C 34899.5 hPa SW 11.9 km/h 11.9 km/h 54 % 0 mm
17:14 -11.2 °C -16.2 °C 34899.5 hPa West 9 km/h 9 km/h 54 % 0 mm
17:19 -11.3 °C -16.3 °C 34899.5 hPa SSW 6.8 km/h 6.8 km/h 54 % 0 mm
17:24 -11.4 °C -16.4 °C 34899.5 hPa WSW 6 km/h 6 km/h 54 % 0 mm
17:29 -11.5 °C -16.3 °C 34899.5 hPa SW 11.9 km/h 11.9 km/h 55 % 0 mm
17:34 -11.6 °C -16.4 °C 34899.5 hPa WSW 6 km/h 6 km/h 55 % 0 mm
17:39 -11.7 °C -16.6 °C 34899.5 hPa SW 9 km/h 9 km/h 55 % 0 mm
17:44 -11.8 °C -16.6 °C 34899.5 hPa SW 6 km/h 6 km/h 55 % 0 mm
17:49 -11.9 °C -16.6 °C 34899.5 hPa WSW 6 km/h 6 km/h 56 % 0 mm
17:54 -12 °C -16.7 °C 34899.5 hPa West 3.1 km/h 3.1 km/h 56 % 0 mm
17:59 -12.1 °C -16.6 °C 34899.5 hPa WSW 3.1 km/h 3.1 km/h 57 % 0 mm
18:04 -12.2 °C -16.7 °C 34899.5 hPa WSW 4.2 km/h 4.2 km/h 57 % 0 mm
18:09 -12.2 °C -16.6 °C 34899.5 hPa WSW 3.1 km/h 3.7 km/h 58 % 0 mm
18:15 -16.2 °C -18.8 °C 34946.9 hPa Calm   2.6 km/h 71 % 0 mm
18:19 -12.4 °C -16.6 °C 34899.5 hPa WSW 3.1 km/h   59 % 0 mm
18:24 -12.5 °C -16.6 °C 34899.5 hPa WSW 3.1 km/h   60 % 0 mm
18:25 -16.2 °C -18.8 °C 34946.9 hPa NNE 2.6 km/h 2.6 km/h 71 % 0 mm
18:29 -12.6 °C -16.7 °C 34899.5 hPa WSW 3.1 km/h   60 % 0 mm
18:34 -12.7 °C -16.6 °C 34899.5 hPa Calm     61 % 0 mm
18:35 -16.2 °C -18.8 °C 34967.2 hPa NNE 2.6 km/h 5.1 km/h 72 % 0 mm
18:39 -12.7 °C -16.6 °C 34899.5 hPa West 3.1 km/h 3.1 km/h 62 % 0 mm
18:44 -12.8 °C -16.6 °C 34899.5 hPa WSW 4.2 km/h 4.2 km/h 62 % 0 mm
18:45 -16.3 °C -18.8 °C 34967.2 hPa Calm   5.1 km/h 72 % 0 mm
18:49 -12.8 °C -16.6 °C 34899.5 hPa Calm     63 % 0 mm
18:54 -12.9 °C -16.6 °C 34899.5 hPa WSW 6 km/h 6 km/h 63 % 0 mm
18:55 -16.3 °C -18.8 °C 34946.9 hPa Calm     72 % 0 mm
18:59 -12.9 °C -16.5 °C 34899.5 hPa SW 6 km/h 6 km/h 64 % 0 mm
19:04 -12.9 °C -16.5 °C 34899.5 hPa WSW 5.6 km/h 5.6 km/h 64 % 0 mm
19:05 -16.5 °C -19.1 °C 34946.9 hPa NNW 2.6 km/h 5.1 km/h 71 % 0 mm
19:09 -12.9 °C -16.5 °C 34899.5 hPa SW 3.1 km/h 3.1 km/h 64 % 0 mm
19:14 -12.9 °C -16.5 °C 34899.5 hPa SW 6 km/h 6 km/h 64 % 0 mm
19:15 -16.6 °C -19.2 °C 34946.9 hPa Calm   2.6 km/h 71 % 0 mm
19:19 -13 °C -16.4 °C 34899.5 hPa WSW 3.1 km/h 3.1 km/h 65 % 0 mm
19:24 -13.1 °C -16.5 °C 34899.5 hPa WSW 6 km/h 6 km/h 65 % 0 mm
19:25 -16.6 °C -19.2 °C 34899.5 hPa WNW 2.6 km/h 5.1 km/h 71 % 0 mm
19:29 -13.1 °C -16.5 °C 34946.9 hPa WSW 3.1 km/h 3.1 km/h 65 % 0 mm
19:34 -13.1 °C -16.4 °C 34946.9 hPa Calm     66 % 0 mm
19:35 -16.6 °C -19.1 °C 34946.9 hPa Calm   5.1 km/h 72 % 0 mm
19:39 -13.2 °C -16.5 °C 34946.9 hPa West 3.7 km/h 3.7 km/h 66 % 0 mm
19:44 -13.2 °C -16.4 °C 34946.9 hPa Calm     67 % 0 mm
19:45 -16.6 °C -19.1 °C 34946.9 hPa WSW 2.6 km/h 5.1 km/h 72 % 0 mm
19:49 -13.3 °C -16.5 °C 34946.9 hPa SW 3.1 km/h 3.1 km/h 67 % 0 mm
19:54 -13.3 °C -16.6 °C 34946.9 hPa WSW 3.1 km/h 3.1 km/h 67 % 0 mm
19:55 -16.6 °C -19.1 °C 34899.5 hPa Calm   2.6 km/h 72 % 0 mm
19:59 -13.3 °C -16.6 °C 34946.9 hPa West 4.2 km/h 4.2 km/h 67 % 0 mm
20:04 -13.4 °C -16.6 °C 34946.9 hPa West 6 km/h 6 km/h 67 % 0 mm
20:05 -16.6 °C -19.1 °C 34899.5 hPa Calm     72 % 0 mm
20:09 -13.5 °C -16.9 °C 34946.9 hPa West 6.3 km/h 6.8 km/h 65 % 0 mm
20:14 -13.5 °C -16.9 °C 34946.9 hPa WSW 6 km/h 6 km/h 65 % 0 mm
20:15 -16.6 °C -19.2 °C 34899.5 hPa West 2.6 km/h 2.6 km/h 71 % 0 mm
20:19 -13.5 °C -16.9 °C 34946.9 hPa West 3.1 km/h   65 % 0 mm
20:24 -13.6 °C -16.9 °C 34946.9 hPa WSW 6 km/h   66 % 0 mm
20:25 -16.6 °C -19.1 °C 34899.5 hPa Calm     72 % 0 mm
20:29 -13.7 °C -17 °C 34946.9 hPa Calm     66 % 0 mm
20:34 -13.8 °C -17.1 °C 34946.9 hPa ENE 5.1 km/h 5.1 km/h 66 % 0 mm
20:35 -16.6 °C -19 °C 34899.5 hPa Calm     73 % 0 mm
20:39 -13.9 °C -17.1 °C 34946.9 hPa Calm     67 % 0 mm
20:44 -14.1 °C -17.3 °C 34946.9 hPa ENE 6 km/h 6 km/h 67 % 0 mm
20:45 -16.4 °C -18.8 °C 34899.5 hPa Calm     73 % 0 mm
20:49 -14.2 °C -17.3 °C 34946.9 hPa Calm     67 % 0 mm
20:54 -14.2 °C -17.2 °C 34946.9 hPa ENE 3.1 km/h 3.1 km/h 68 % 0 mm
20:55 -16.4 °C -18.7 °C 34899.5 hPa Calm   5.1 km/h 74 % 0 mm
20:59 -14.2 °C -17.3 °C 34946.9 hPa ENE 6 km/h 6 km/h 68 % 0 mm
21:04 -14.3 °C -17.3 °C 34946.9 hPa Calm     68 % 0 mm
21:05 -16.4 °C -18.8 °C 34899.5 hPa Calm   2.6 km/h 73 % 0 mm
21:09 -14.4 °C -17.4 °C 34946.9 hPa WSW 6.3 km/h   68 % 0 mm
21:14 -14.6 °C -17.7 °C 34946.9 hPa West 3.1 km/h   67 % 0 mm
21:15 -16.5 °C -18.8 °C 34899.5 hPa Calm     74 % 0 mm
21:19 -14.7 °C -17.8 °C 34946.9 hPa West 3.7 km/h 3.7 km/h 67 % 0 mm
21:24 -14.7 °C -17.9 °C 34946.9 hPa Calm     67 % 0 mm
21:25 -16.6 °C -19 °C 34899.5 hPa WNW 5.1 km/h 5.1 km/h 73 % 0 mm
21:29 -14.8 °C -17.8 °C 34946.9 hPa Calm     68 % 0 mm
21:34 -14.9 °C -18 °C 34946.9 hPa Calm     67 % 0 mm
21:35 -16.6 °C -19 °C 34899.5 hPa Calm   5.1 km/h 73 % 0 mm
21:39 -15 °C -18.1 °C 34946.9 hPa Calm     67 % 0 mm
21:44 -15 °C -18.1 °C 34946.9 hPa Calm     67 % 0 mm
21:45 -16.5 °C -18.9 °C 34899.5 hPa NW 2.6 km/h 2.6 km/h 73 % 0 mm
21:49 -14.9 °C -18.1 °C 34946.9 hPa West 3.1 km/h 3.1 km/h 67 % 0 mm
21:51 -14.9 °C -18.1 °C 34946.9 hPa West 3.1 km/h   67 % 0 mm
21:55 -16.6 °C -18.8 °C 34899.5 hPa Calm   2.6 km/h 74 % 0 mm
21:56 -14.9 °C -18.1 °C 34946.9 hPa Calm     67 % 0 mm
22:01 -14.9 °C -17.9 °C 34946.9 hPa Calm     68 % 0 mm
22:05 -16.6 °C -18.9 °C 34899.5 hPa Calm     74 % 0 mm
22:06 -14.9 °C -17.8 °C 34946.9 hPa WNW 4.2 km/h 4.2 km/h 69 % 0 mm
22:11 -15 °C -17.9 °C 34946.9 hPa ENE 6 km/h 6 km/h 69 % 0 mm
22:15 -16.6 °C -18.9 °C 34899.5 hPa Calm   2.6 km/h 74 % 0 mm
22:16 -15.1 °C -17.9 °C 34946.9 hPa ENE 4.2 km/h   69 % 0 mm
22:21 -15.2 °C -18.1 °C 34946.9 hPa Calm     69 % 0 mm
22:25 -16.7 °C -19 °C 34899.5 hPa Calm     74 % 0 mm
22:26 -15.2 °C -17.9 °C 34946.9 hPa ENE 3.7 km/h   70 % 0 mm
22:31 -15.2 °C -18 °C 34946.9 hPa Calm     70 % 0 mm
22:35 -16.8 °C -19.1 °C 34899.5 hPa SW 2.6 km/h 5.1 km/h 74 % 0 mm
22:36 -15.3 °C -18.1 °C 34946.9 hPa Calm     70 % 0 mm
22:41 -15.3 °C -18.1 °C 34946.9 hPa East 5.6 km/h 5.6 km/h 70 % 0 mm
22:45 -16.8 °C -19.1 °C 34899.5 hPa NE 2.6 km/h 5.1 km/h 74 % 0 mm
22:46 -15.3 °C -18.1 °C 34946.9 hPa ENE 4.2 km/h 4.2 km/h 70 % 0 mm
22:51 -15.4 °C -18.1 °C 34946.9 hPa East 6 km/h 6 km/h 71 % 0 mm
22:55 -16.8 °C -19.1 °C 34899.5 hPa NE 2.6 km/h 5.1 km/h 75 % 0 mm
22:56 -15.5 °C -18.3 °C 34946.9 hPa East 3.1 km/h   70 % 0 mm
23:01 -15.6 °C -18.3 °C 34946.9 hPa Calm     70 % 0 mm
23:02 -15.6 °C -18.3 °C 34946.9 hPa Calm     70 % 0 mm
23:05 -16.8 °C -19.1 °C 34899.5 hPa Calm     75 % 0 mm
23:07 -15.7 °C -18.4 °C 34946.9 hPa Calm     70 % 0 mm
23:12 -15.7 °C -18.5 °C 34946.9 hPa Calm     70 % 0 mm
23:15 -16.9 °C -19.1 °C 34899.5 hPa Calm     75 % 0 mm
23:17 -15.8 °C -18.6 °C 34946.9 hPa Calm     70 % 0 mm
23:22 -15.8 °C -18.6 °C 34946.9 hPa Calm     70 % 0 mm
23:25 -17 °C -19.2 °C 34875.8 hPa Calm     75 % 0 mm
23:27 -15.9 °C -18.6 °C 34946.9 hPa Calm     71 % 0 mm
23:32 -15.9 °C -18.6 °C 34967.2 hPa Calm     71 % 0 mm
23:35 -16.9 °C -19.1 °C 34899.5 hPa Calm     75 % 0 mm
23:37 -15.9 °C -18.6 °C 34967.2 hPa Calm     71 % 0 mm
23:42 -15.9 °C -18.6 °C 34967.2 hPa Calm     71 % 0 mm
23:45 -17 °C -19.2 °C 34899.5 hPa SSW 2.6 km/h 5.1 km/h 75 % 0 mm
23:47 -15.9 °C -18.5 °C 34946.9 hPa Calm     72 % 0 mm
23:52 -16 °C -18.7 °C 34946.9 hPa North 3.1 km/h   71 % 0 mm
23:55 -17 °C -19.2 °C 34899.5 hPa NW 2.6 km/h 5.1 km/h 75 % 0 mm
23:57 -16 °C -18.7 °C 34946.9 hPa NNE 6 km/h 6 km/h 71 % 0 mm
Meteo Sesrovires
Elogis d' Weather Underground - 2 mb

Guio original per  Jim McMurry - jmcmurry@mwt.net Adaptat per a la plantilla per  Wim van der Kuil - Leuven-Template.eu

Trobareu la nostra informacio del temps tambe a:

Weather Underground

AWEKAS